createdAt,value
2023-09-02T00:00:27.803Z,18.85
2023-09-02T00:03:07.884Z,17.35
2023-09-02T00:06:01.848Z,18.55
2023-09-02T00:08:55.871Z,17.20
2023-09-02T00:11:42.839Z,15.57
2023-09-02T00:14:22.843Z,16.80
2023-09-02T00:17:19.557Z,17.42
2023-09-02T00:20:05.890Z,16.95
2023-09-02T00:22:40.009Z,17.23
2023-09-02T00:25:26.838Z,17.42
2023-09-02T00:28:07.863Z,17.40
2023-09-02T00:31:01.872Z,16.80
2023-09-02T00:33:48.845Z,15.95
2023-09-02T00:36:28.889Z,17.25
2023-09-02T00:39:25.862Z,18.23
2023-09-02T00:42:16.884Z,17.00
2023-09-02T00:44:50.000Z,17.00
2023-09-02T00:47:36.905Z,19.23
2023-09-02T00:50:09.994Z,17.75
2023-09-02T00:52:56.906Z,17.10
2023-09-02T00:55:29.991Z,17.27
2023-09-02T00:58:16.882Z,15.93
2023-09-02T01:00:57.893Z,16.95
2023-09-02T01:03:46.980Z,19.02
2023-09-02T01:06:27.869Z,16.83
2023-09-02T01:09:14.889Z,17.63
2023-09-02T01:11:50.400Z,17.98
2023-09-02T01:14:36.884Z,18.85
2023-09-02T01:17:10.070Z,17.67
2023-09-02T01:19:58.884Z,17.83
2023-09-02T01:23:10.885Z,19.10
2023-09-02T01:26:22.897Z,18.70
2023-09-02T01:29:21.916Z,18.65
2023-09-02T01:32:09.867Z,17.75
2023-09-02T01:34:54.122Z,17.75
2023-09-02T01:37:45.957Z,18.10
2023-09-02T01:40:26.353Z,17.65
2023-09-02T01:43:12.896Z,19.45
2023-09-02T01:45:53.911Z,18.10
2023-09-02T01:48:41.916Z,19.20
2023-09-02T01:51:15.997Z,20.00
2023-09-02T01:54:09.922Z,18.67
2023-09-02T01:57:03.905Z,18.80
2023-09-02T01:59:50.936Z,20.00
2023-09-02T02:02:24.140Z,19.27
2023-09-02T02:05:13.932Z,19.63
2023-09-02T02:07:56.100Z,19.77
2023-09-02T02:10:44.984Z,18.27
2023-09-02T02:13:24.942Z,17.50
2023-09-02T02:16:12.999Z,17.25
2023-09-02T02:18:53.920Z,19.25
2023-09-02T02:21:40.983Z,17.60
2023-09-02T02:24:15.732Z,19.75
2023-09-02T02:27:02.946Z,19.27
2023-09-02T02:29:42.938Z,20.17
2023-09-02T02:32:37.929Z,20.00
2023-09-02T02:35:29.919Z,19.30
2023-09-02T02:38:09.954Z,19.80
2023-09-02T02:40:57.917Z,20.63
2023-09-02T02:43:37.913Z,19.90
2023-09-02T02:46:31.913Z,21.85
2023-09-02T02:49:25.916Z,20.02
2023-09-02T02:52:22.453Z,22.17
2023-09-02T02:55:17.923Z,21.95
2023-09-02T02:58:11.958Z,21.48
2023-09-02T03:01:11.944Z,22.20
2023-09-02T03:03:53.916Z,21.17
2023-09-02T03:06:47.918Z,22.27
2023-09-02T03:09:43.944Z,21.75
2023-09-02T03:12:37.923Z,21.90
2023-09-02T03:15:25.927Z,22.15
2023-09-02T03:17:59.126Z,21.65
2023-09-02T03:20:46.916Z,23.55
2023-09-02T03:23:20.593Z,20.58
2023-09-02T03:26:25.940Z,21.70
2023-09-02T03:29:05.917Z,20.63
2023-09-02T03:31:59.933Z,20.42
2023-09-02T03:34:46.920Z,20.95
2023-09-02T03:37:23.038Z,20.92
2023-09-02T03:40:12.925Z,19.23
2023-09-02T03:42:46.082Z,21.20
2023-09-02T03:45:32.936Z,19.98
2023-09-02T03:48:13.018Z,21.33
2023-09-02T03:51:08.938Z,20.92
2023-09-02T03:53:42.819Z,21.63
2023-09-02T03:56:29.947Z,22.55
2023-09-02T03:59:09.940Z,21.55
2023-09-02T04:02:03.936Z,22.38
2023-09-02T04:04:50.955Z,23.00
2023-09-02T04:07:30.947Z,23.13
2023-09-02T04:10:17.952Z,21.38
2023-09-02T04:12:51.040Z,22.52
2023-09-02T04:15:37.943Z,21.85
2023-09-02T04:18:12.186Z,22.35
2023-09-02T04:20:58.938Z,22.58
2023-09-02T04:23:32.043Z,21.40
2023-09-02T04:26:18.948Z,22.67
2023-09-02T04:28:52.056Z,22.25
2023-09-02T04:31:38.964Z,24.33
2023-09-02T04:34:12.074Z,23.30
2023-09-02T04:36:58.964Z,22.40
2023-09-02T04:39:35.334Z,22.15
2023-09-02T04:42:22.648Z,22.30
2023-09-02T04:44:57.671Z,22.75
2023-09-02T04:47:43.977Z,22.65
2023-09-02T04:50:23.987Z,24.60
2023-09-02T04:53:18.185Z,21.75
2023-09-02T04:56:11.969Z,24.20
2023-09-02T04:59:05.970Z,23.08
2023-09-02T05:01:59.999Z,24.15
2023-09-02T05:04:53.985Z,22.40
2023-09-02T05:07:47.960Z,22.83
2023-09-02T05:10:34.981Z,23.08
2023-09-02T05:13:14.980Z,23.55
2023-09-02T05:16:09.092Z,23.63
2023-09-02T05:19:03.018Z,23.13
2023-09-02T05:21:56.998Z,22.95
2023-09-02T05:24:43.982Z,23.98
2023-09-02T05:27:18.103Z,23.83
2023-09-02T05:30:05.024Z,23.58
2023-09-02T05:32:38.113Z,22.45
2023-09-02T05:35:25.023Z,23.77
2023-09-02T05:37:58.871Z,22.25
2023-09-02T05:40:52.041Z,23.35
2023-09-02T05:43:37.034Z,24.15
2023-09-02T05:46:24.023Z,21.67
2023-09-02T05:48:57.113Z,22.02
2023-09-02T05:51:43.995Z,23.83
2023-09-02T05:54:24.026Z,23.83
2023-09-02T05:57:18.008Z,22.83
2023-09-02T06:00:12.041Z,21.58
2023-09-02T06:02:59.063Z,22.40
2023-09-02T06:05:38.999Z,23.27
2023-09-02T06:08:33.031Z,21.70
2023-09-02T06:11:27.013Z,22.00
2023-09-02T06:14:14.041Z,21.60
2023-09-02T06:16:47.147Z,21.73
2023-09-02T06:19:34.055Z,20.85
2023-09-02T06:22:14.027Z,20.67
2023-09-02T06:25:09.009Z,23.30
2023-09-02T06:27:56.031Z,22.05
2023-09-02T06:30:29.177Z,25.33
2023-09-02T06:33:16.396Z,22.67
2023-09-02T06:35:50.122Z,21.83
2023-09-02T06:38:38.040Z,21.00
2023-09-02T06:41:18.162Z,20.52
2023-09-02T06:44:05.015Z,21.45
2023-09-02T06:46:46.040Z,21.35
2023-09-02T06:49:43.031Z,20.17
2023-09-02T06:52:37.038Z,21.48
2023-09-02T06:55:31.024Z,22.63
2023-09-02T06:58:25.035Z,20.85
2023-09-02T07:01:12.107Z,19.70
2023-09-02T07:03:52.153Z,18.80
2023-09-02T07:06:46.058Z,20.63
2023-09-02T07:09:33.037Z,20.55
2023-09-02T07:12:06.197Z,20.15
2023-09-02T07:14:53.041Z,19.35
2023-09-02T07:17:36.076Z,20.55
2023-09-02T07:20:30.038Z,16.73
2023-09-02T07:23:24.046Z,17.10
2023-09-02T07:26:12.067Z,22.08
2023-09-02T07:28:45.174Z,18.27
2023-09-02T07:31:32.099Z,18.40
2023-09-02T07:34:12.082Z,17.80
2023-09-02T07:37:06.036Z,16.00
2023-09-02T07:39:53.076Z,15.55
2023-09-02T07:42:33.037Z,17.70
2023-09-02T07:45:27.078Z,16.92
2023-09-02T07:48:21.056Z,15.80
2023-09-02T07:51:15.104Z,16.88
2023-09-02T07:54:05.062Z,16.50
2023-09-02T07:56:38.149Z,14.23
2023-09-02T07:59:25.123Z,15.32
2023-09-02T08:01:58.158Z,16.52
2023-09-02T08:04:45.081Z,16.83
2023-09-02T08:07:18.293Z,16.38
2023-09-02T08:10:05.120Z,16.40
2023-09-02T08:12:45.100Z,15.95
2023-09-02T08:15:39.105Z,17.38
2023-09-02T08:18:26.078Z,16.17
2023-09-02T08:20:59.179Z,16.58
2023-09-02T08:23:46.103Z,17.25
2023-09-02T08:26:21.186Z,16.67
2023-09-02T08:29:08.090Z,16.10
2023-09-02T08:31:41.218Z,16.65
2023-09-02T08:34:28.081Z,16.75
2023-09-02T08:37:01.236Z,14.73
2023-09-02T08:39:48.114Z,15.68
2023-09-02T08:42:25.170Z,16.30
2023-09-02T08:45:17.103Z,16.75
2023-09-02T08:47:53.213Z,17.85
2023-09-02T08:50:40.130Z,18.02
2023-09-02T08:53:14.192Z,16.33
2023-09-02T08:56:09.117Z,16.20
2023-09-02T08:59:04.110Z,16.60
2023-09-02T09:02:00.107Z,15.82
2023-09-02T09:04:48.132Z,16.38
2023-09-02T09:07:31.120Z,17.10
2023-09-02T09:10:22.127Z,17.35
2023-09-02T09:13:02.204Z,16.38
2023-09-02T09:15:49.267Z,14.77
2023-09-02T09:18:31.154Z,16.10
2023-09-02T09:21:18.113Z,17.67
2023-09-02T09:23:58.151Z,18.02
2023-09-02T09:26:46.134Z,14.70
2023-09-02T09:29:25.407Z,14.50
2023-09-02T09:32:17.155Z,14.52
2023-09-02T09:34:52.301Z,15.48
2023-09-02T09:38:00.141Z,15.05
2023-09-02T09:40:42.294Z,17.33
2023-09-02T09:43:35.177Z,15.70
2023-09-02T09:46:08.353Z,17.08
2023-09-02T09:48:56.139Z,15.90
2023-09-02T09:51:37.160Z,15.45
2023-09-02T09:54:31.182Z,17.08
2023-09-02T09:57:29.149Z,16.95
2023-09-02T10:00:29.145Z,17.08
2023-09-02T10:03:17.447Z,17.88
2023-09-02T10:05:51.278Z,17.77
2023-09-02T10:08:56.196Z,17.15
2023-09-02T10:11:30.323Z,22.10
2023-09-02T10:14:18.168Z,22.20
2023-09-02T10:16:53.274Z,19.38
2023-09-02T10:19:42.194Z,20.67
2023-09-02T10:22:29.202Z,19.83
2023-09-02T10:25:36.176Z,19.50
2023-09-02T10:28:35.164Z,18.73
2023-09-02T10:31:30.181Z,23.15
2023-09-02T10:34:29.352Z,20.63
2023-09-02T10:37:21.161Z,17.48
2023-09-02T10:40:05.162Z,17.55
2023-09-02T10:43:00.190Z,17.75
2023-09-02T10:48:43.177Z,16.95
2023-09-02T10:51:17.352Z,18.00
2023-09-02T10:54:05.174Z,18.60
2023-09-02T10:56:48.163Z,19.00
2023-09-02T10:59:43.186Z,16.75
2023-09-02T11:03:00.384Z,21.23
2023-09-02T11:05:42.166Z,21.27
2023-09-02T11:08:54.275Z,20.95
2023-09-02T11:11:35.174Z,18.52
2023-09-02T11:14:22.185Z,20.67
2023-09-02T11:17:34.338Z,19.67
2023-09-02T11:20:27.217Z,17.33
2023-09-02T11:23:10.676Z,17.63
2023-09-02T11:26:21.208Z,20.45
2023-09-02T11:29:01.194Z,19.17
2023-09-02T11:32:09.213Z,20.05
2023-09-02T11:34:57.202Z,19.70
2023-09-02T11:37:38.397Z,20.08
2023-09-02T11:40:26.261Z,20.23
2023-09-02T11:43:16.469Z,19.80
2023-09-02T11:46:11.280Z,22.63
2023-09-02T11:49:05.209Z,20.00
2023-09-02T11:51:52.225Z,17.05
2023-09-02T11:54:25.425Z,19.20
2023-09-02T11:57:12.199Z,19.13
2023-09-02T11:59:45.318Z,19.33
2023-09-02T12:02:33.268Z,17.77
2023-09-02T12:05:06.447Z,18.42
2023-09-02T12:07:55.533Z,18.38
2023-09-02T12:10:29.405Z,18.92
2023-09-02T12:13:16.515Z,17.42
2023-09-02T12:15:58.476Z,18.17
2023-09-02T12:18:45.263Z,17.63
2023-09-02T12:21:19.329Z,17.98
2023-09-02T12:24:06.228Z,17.52
2023-09-02T12:26:39.364Z,18.20
2023-09-02T12:29:27.249Z,17.98
2023-09-02T12:32:06.394Z,18.63
2023-09-02T12:34:53.250Z,18.58
2023-09-02T12:37:35.238Z,17.38
2023-09-02T12:40:30.312Z,18.60
2023-09-02T12:43:24.280Z,18.48
2023-09-02T12:46:11.326Z,18.27
2023-09-02T12:48:45.538Z,18.35
2023-09-02T12:51:35.258Z,18.52
2023-09-02T12:54:19.519Z,17.50
2023-09-02T12:57:06.299Z,19.00
2023-09-02T12:59:46.250Z,19.05
2023-09-02T13:02:41.324Z,17.20
2023-09-02T13:05:28.309Z,18.40
2023-09-02T13:08:01.460Z,18.65
2023-09-02T13:10:48.301Z,18.00
2023-09-02T13:13:24.405Z,17.15
2023-09-02T13:16:11.305Z,16.95
2023-09-02T13:18:44.436Z,18.00
2023-09-02T13:21:31.259Z,15.75
2023-09-02T13:24:05.432Z,16.45
2023-09-02T13:26:53.261Z,17.35
2023-09-02T13:29:31.411Z,20.08
2023-09-02T13:32:32.332Z,17.52
2023-09-02T13:35:36.307Z,17.88
2023-09-02T13:38:38.376Z,18.23
2023-09-02T13:41:33.319Z,18.17
2023-09-02T13:44:27.277Z,18.80
2023-09-02T13:47:14.307Z,21.33
2023-09-02T13:49:51.437Z,20.85
2023-09-02T13:52:39.284Z,18.10
2023-09-02T13:55:13.409Z,19.25
2023-09-02T13:58:01.303Z,18.35
2023-09-02T14:00:37.510Z,20.08
2023-09-02T14:03:27.024Z,19.80
2023-09-02T14:06:09.285Z,18.75
2023-09-02T14:09:03.370Z,18.65
2023-09-02T14:11:57.274Z,19.73
2023-09-02T14:14:54.310Z,18.40
2023-09-02T14:17:41.329Z,18.70
2023-09-02T14:20:22.309Z,19.70
2023-09-02T14:23:09.347Z,18.45
2023-09-02T14:25:49.309Z,20.90
2023-09-02T14:28:43.307Z,19.05
2023-09-02T14:31:38.309Z,18.05
2023-09-02T14:34:25.309Z,18.00
2023-09-02T14:37:05.319Z,18.75
2023-09-02T14:40:00.310Z,21.13
2023-09-02T14:42:54.328Z,18.88
2023-09-02T14:45:48.378Z,19.85
2023-09-02T14:48:43.344Z,20.35
2023-09-02T14:51:30.328Z,18.20
2023-09-02T14:54:12.444Z,18.88
2023-09-02T14:57:06.360Z,19.05
2023-09-02T14:59:55.307Z,20.50
2023-09-02T15:02:57.415Z,18.10
2023-09-02T15:05:51.327Z,18.67
2023-09-02T15:08:42.330Z,17.90
2023-09-02T15:11:15.457Z,17.13
2023-09-02T15:14:03.550Z,18.58
2023-09-02T15:16:36.522Z,19.58
2023-09-02T15:19:27.305Z,19.42
2023-09-02T15:22:07.489Z,16.52
2023-09-02T15:24:54.332Z,17.52
2023-09-02T15:27:36.409Z,17.40
2023-09-02T15:30:30.412Z,17.40
2023-09-02T15:33:25.296Z,16.67
2023-09-02T15:36:23.369Z,19.02
2023-09-02T15:38:59.005Z,16.80
2023-09-02T15:41:49.605Z,16.38
2023-09-02T15:44:29.373Z,16.67
2023-09-02T15:47:27.346Z,16.85
2023-09-02T15:50:15.288Z,14.50
2023-09-02T15:52:59.302Z,16.98
2023-09-02T15:55:53.437Z,16.48
2023-09-02T15:58:47.375Z,16.17
2023-09-02T16:01:34.482Z,16.38
2023-09-02T16:04:14.402Z,17.98
2023-09-02T16:07:10.442Z,16.58
2023-09-02T16:10:04.404Z,16.25
2023-09-02T16:12:58.406Z,15.90
2023-09-02T16:15:45.451Z,16.52
2023-09-02T16:18:18.450Z,16.27
2023-09-02T16:21:08.094Z,15.70
2023-09-02T16:23:48.411Z,15.00
2023-09-02T16:26:42.413Z,15.68
2023-09-02T16:29:37.429Z,15.88
2023-09-02T16:32:24.557Z,16.55
2023-09-02T16:34:59.535Z,16.52
2023-09-02T16:37:48.415Z,17.88
2023-09-02T16:40:22.556Z,17.08
2023-09-02T16:43:12.410Z,16.48
2023-09-02T16:45:45.522Z,14.60
2023-09-02T16:48:32.416Z,16.45
2023-09-02T16:51:08.723Z,18.58
2023-09-02T16:53:55.418Z,19.40
2023-09-02T16:56:28.618Z,17.80
2023-09-02T16:59:15.435Z,18.23
2023-09-02T17:01:55.440Z,17.58
2023-09-02T17:04:49.474Z,17.38
2023-09-02T17:07:43.437Z,18.15
2023-09-02T17:10:33.426Z,18.88
2023-09-02T17:13:08.307Z,19.60
2023-09-02T17:15:55.437Z,18.58
2023-09-02T17:18:35.414Z,16.40
2023-09-02T17:21:25.425Z,16.83
2023-09-02T17:24:05.429Z,15.55
2023-09-02T17:27:09.215Z,16.45
2023-09-02T17:29:56.410Z,15.60
2023-09-02T17:32:36.504Z,15.00
2023-09-02T17:35:16.480Z,15.25
2023-09-02T17:38:10.444Z,14.05
2023-09-02T17:40:57.491Z,16.45
2023-09-02T17:43:31.670Z,16.77
2023-09-02T17:46:18.654Z,15.90
2023-09-02T17:48:55.065Z,15.45
2023-09-02T17:51:41.480Z,15.32
2023-09-02T17:54:21.468Z,15.50
2023-09-02T17:57:15.493Z,17.10
2023-09-02T18:00:09.547Z,18.58
2023-09-02T18:03:04.559Z,19.90
2023-09-02T18:05:59.493Z,17.85
2023-09-02T18:08:59.213Z,17.05
2023-09-02T18:11:46.464Z,18.25
2023-09-02T18:14:19.567Z,17.45
2023-09-02T18:17:38.593Z,18.83
2023-09-02T18:20:19.488Z,16.75
2023-09-02T18:23:14.466Z,17.20
2023-09-02T18:26:08.472Z,17.77
2023-09-02T18:29:03.527Z,16.85
2023-09-02T18:31:52.452Z,16.60
2023-09-02T18:34:25.685Z,15.23
2023-09-02T18:37:12.472Z,14.32
2023-09-02T18:39:53.516Z,18.15
2023-09-02T18:42:48.553Z,17.40
2023-09-02T18:45:35.497Z,16.50
2023-09-02T18:48:08.622Z,16.58
2023-09-02T18:50:58.472Z,16.80
2023-09-02T18:53:39.579Z,16.58
2023-09-02T18:56:35.505Z,16.40
2023-09-02T18:59:22.458Z,16.75
2023-09-02T19:02:02.465Z,18.15
2023-09-02T19:04:56.507Z,16.48
2023-09-02T19:07:51.521Z,18.77
2023-09-02T19:10:38.486Z,18.00
2023-09-02T19:13:20.455Z,19.35
2023-09-02T19:16:14.522Z,18.45
2023-09-02T19:19:08.469Z,17.90
2023-09-02T19:21:56.493Z,20.98
2023-09-02T19:24:38.942Z,18.75
2023-09-02T19:27:32.571Z,17.98
2023-09-02T19:30:27.540Z,18.75
2023-09-02T19:33:14.527Z,17.90
2023-09-02T19:35:47.646Z,18.73
2023-09-02T19:38:34.492Z,19.45
2023-09-02T19:41:15.508Z,19.10
2023-09-02T19:44:02.469Z,19.48
2023-09-02T19:46:47.372Z,20.08
2023-09-02T19:49:34.554Z,20.90
2023-09-02T19:52:15.506Z,19.05
2023-09-02T19:55:09.498Z,19.25
2023-09-02T19:58:03.510Z,19.13
2023-09-02T20:00:58.552Z,18.85
2023-09-02T20:03:52.533Z,20.10
2023-09-02T20:06:48.927Z,18.13
2023-09-02T20:09:44.656Z,17.95
2023-09-02T20:12:31.494Z,18.73
2023-09-02T20:15:11.534Z,18.52
2023-09-02T20:17:58.578Z,18.42
2023-09-02T20:20:32.615Z,18.27
2023-09-02T20:23:19.499Z,18.83
2023-09-02T20:25:59.524Z,19.75
2023-09-02T20:28:47.525Z,19.77
2023-09-02T20:31:24.670Z,18.95
2023-09-02T20:34:13.530Z,18.65
2023-09-02T20:36:53.520Z,19.23
2023-09-02T20:39:40.586Z,18.45
2023-09-02T20:42:13.635Z,21.00
2023-09-02T20:45:00.565Z,19.08
2023-09-02T20:47:33.684Z,19.50
2023-09-02T20:50:21.604Z,17.88
2023-09-02T20:53:01.534Z,18.33
2023-09-02T20:55:55.560Z,19.88
2023-09-02T20:58:42.653Z,21.23
2023-09-02T21:01:22.634Z,18.67
2023-09-02T21:04:18.262Z,19.60
2023-09-02T21:07:12.551Z,19.08
2023-09-02T21:10:06.549Z,19.95
2023-09-02T21:13:00.549Z,20.13
2023-09-02T21:15:54.561Z,20.58
2023-09-02T21:18:48.556Z,20.40
2023-09-02T21:21:42.567Z,21.83
2023-09-02T21:24:29.534Z,21.05
2023-09-02T21:27:03.085Z,20.40
2023-09-02T21:29:49.531Z,21.25
2023-09-02T21:32:29.636Z,19.42
2023-09-02T21:35:23.564Z,20.35
2023-09-02T21:38:17.630Z,20.27
2023-09-02T21:41:12.542Z,20.42
2023-09-02T21:43:45.651Z,19.95
2023-09-02T21:46:32.577Z,19.60
2023-09-02T21:49:05.644Z,20.80
2023-09-02T21:51:52.556Z,21.05
2023-09-02T21:54:25.672Z,19.63
2023-09-02T21:57:12.579Z,19.05
2023-09-02T21:59:52.570Z,18.95
2023-09-02T22:02:39.633Z,20.30
2023-09-02T22:05:19.594Z,19.17
2023-09-02T22:08:15.580Z,19.48
2023-09-02T22:11:03.576Z,19.95
2023-09-02T22:13:36.942Z,20.17
2023-09-02T22:16:23.647Z,20.70
2023-09-02T22:19:09.605Z,19.90
2023-09-02T22:22:05.561Z,20.30
2023-09-02T22:24:59.584Z,20.08
2023-09-02T22:27:46.563Z,19.83
2023-09-02T22:30:19.867Z,19.90
2023-09-02T22:33:06.653Z,19.30
2023-09-02T22:35:47.599Z,19.73
2023-09-02T22:41:31.557Z,18.92
2023-09-02T22:44:11.607Z,20.60
2023-09-02T22:46:58.592Z,20.20
2023-09-02T22:49:32.702Z,20.52
2023-09-02T22:52:19.603Z,18.60
2023-09-02T22:54:52.684Z,20.33
2023-09-02T22:57:46.623Z,20.23
2023-09-02T23:00:40.587Z,20.27
2023-09-02T23:03:34.619Z,20.40
2023-09-02T23:06:21.608Z,21.02
2023-09-02T23:09:04.636Z,19.15
2023-09-02T23:11:58.595Z,21.33
2023-09-02T23:14:52.589Z,19.52
2023-09-02T23:17:41.649Z,20.85
2023-09-02T23:20:15.692Z,21.27
2023-09-02T23:23:02.621Z,20.55
2023-09-02T23:25:35.702Z,20.65
2023-09-02T23:28:22.881Z,19.88
2023-09-02T23:31:03.837Z,19.67
2023-09-02T23:33:50.627Z,20.33
2023-09-02T23:36:24.241Z,20.38
2023-09-02T23:39:10.607Z,19.17
2023-09-02T23:41:50.624Z,18.40
2023-09-02T23:44:44.621Z,20.20
2023-09-02T23:47:31.673Z,19.98
2023-09-02T23:50:11.643Z,19.42
2023-09-02T23:52:58.612Z,19.10
2023-09-02T23:55:31.731Z,19.23
2023-09-02T23:58:18.943Z,19.90
